createdAt,value
2024-05-09T00:00:40.672Z,88.3955
2024-05-09T00:01:47.944Z,87.6631
2024-05-09T00:02:54.199Z,87.2267
2024-05-09T00:04:02.456Z,88.2033
2024-05-09T00:05:09.421Z,87.5975
2024-05-09T00:06:15.546Z,87.5013
2024-05-09T00:07:21.709Z,87.9866
2024-05-09T00:08:28.884Z,89.0532
2024-05-09T00:09:35.216Z,88.3406
2024-05-09T00:10:41.673Z,88.4718
2024-05-09T00:11:48.011Z,88.2673
2024-05-09T00:12:54.293Z,88.9082
2024-05-09T00:14:00.907Z,88.7739
2024-05-09T00:15:07.253Z,88.4459
2024-05-09T00:16:13.339Z,88.2811
2024-05-09T00:17:19.578Z,88.6229
2024-05-09T00:18:25.873Z,88.5817
2024-05-09T00:19:32.265Z,88.9860
2024-05-09T00:20:40.841Z,88.5695
2024-05-09T00:21:50.448Z,88.6519
2024-05-09T00:22:57.232Z,88.8670
2024-05-09T00:24:03.221Z,88.8075
2024-05-09T00:25:09.710Z,89.3660
2024-05-09T00:26:15.837Z,89.0318
2024-05-09T00:27:22.047Z,88.9723
2024-05-09T00:28:28.814Z,89.3477
2024-05-09T00:29:35.041Z,89.3324
2024-05-09T00:30:41.273Z,89.7734
2024-05-09T00:32:03.187Z,89.9290
2024-05-09T00:33:10.780Z,89.2653
2024-05-09T00:34:18.859Z,89.7505
2024-05-09T00:35:25.936Z,89.8451
2024-05-09T00:36:32.661Z,90.0160
2024-05-09T00:38:05.047Z,89.6208
2024-05-09T00:39:12.180Z,89.5384
2024-05-09T00:40:27.086Z,89.2317
2024-05-09T00:41:31.763Z,89.1768
2024-05-09T00:42:38.613Z,89.3889
2024-05-09T00:43:45.535Z,89.2042
2024-05-09T00:44:57.188Z,89.6345
2024-05-09T00:46:05.409Z,89.1264
2024-05-09T00:47:15.474Z,89.6071
2024-05-09T00:48:22.763Z,89.5857
2024-05-09T00:49:31.556Z,89.9702
2024-05-09T00:50:38.810Z,89.8405
2024-05-09T00:51:49.414Z,89.8039
2024-05-09T00:52:56.623Z,89.5628
2024-05-09T00:54:17.906Z,89.6345
2024-05-09T00:55:25.517Z,89.7581
2024-05-09T00:56:38.508Z,89.8177
2024-05-09T00:57:45.591Z,89.6452
2024-05-09T00:58:52.210Z,89.0684
2024-05-09T01:00:09.899Z,89.6117
2024-05-09T01:01:19.610Z,89.1310
2024-05-09T01:02:41.205Z,89.5567
2024-05-09T01:03:55.081Z,89.2973
2024-05-09T01:05:02.020Z,89.3874
2024-05-09T01:06:09.603Z,89.4987
2024-05-09T01:07:17.720Z,89.0669
2024-05-09T01:08:25.548Z,89.0074
2024-05-09T01:09:35.692Z,89.4072
2024-05-09T01:10:45.189Z,88.9952
2024-05-09T01:11:55.690Z,88.7785
2024-05-09T01:13:05.106Z,88.8060
2024-05-09T01:14:13.670Z,88.9891
2024-05-09T01:15:36.728Z,89.0501
2024-05-09T01:16:44.728Z,89.0578
2024-05-09T01:18:06.646Z,89.0089
2024-05-09T01:20:41.677Z,88.6290
2024-05-09T01:21:49.958Z,88.4398
2024-05-09T01:23:00.022Z,88.4627
2024-05-09T01:24:10.414Z,88.4672
2024-05-09T01:25:24.028Z,88.4550
2024-05-09T01:26:32.195Z,88.3452
2024-05-09T01:27:41.202Z,88.2902
2024-05-09T01:28:49.185Z,88.4825
2024-05-09T01:32:19.649Z,88.0369
2024-05-09T01:32:19.649Z,88.9754
2024-05-09T01:33:26.567Z,88.6427
2024-05-09T01:34:36.052Z,88.7846
2024-05-09T01:35:43.636Z,88.6274
2024-05-09T01:39:11.727Z,88.2155
2024-05-09T01:39:11.727Z,88.6686
2024-05-09T01:43:27.820Z,87.9316
2024-05-09T01:43:27.820Z,89.4026
2024-05-09T01:44:42.551Z,88.8151
2024-05-09T01:45:50.686Z,88.2475
2024-05-09T01:47:28.193Z,88.2017
2024-05-09T01:51:20.006Z,88.2628
2024-05-09T01:51:20.006Z,88.1743
2024-05-09T01:52:29.705Z,87.7546
2024-05-09T01:53:40.593Z,87.9316
2024-05-09T01:55:40.583Z,88.1117
2024-05-09T02:04:39.678Z,88.3436
2024-05-09T02:04:39.678Z,88.0598
2024-05-09T02:06:25.931Z,88.7236
2024-05-09T02:07:31.911Z,88.4276
2024-05-09T02:08:50.123Z,88.1056
2024-05-09T02:10:00.264Z,88.2841
2024-05-09T02:11:06.976Z,88.6244
2024-05-09T02:12:13.689Z,88.3665
2024-05-09T02:13:25.341Z,88.9754
2024-05-09T02:14:38.766Z,88.4443
2024-05-09T02:19:34.471Z,87.9408
2024-05-09T02:20:41.943Z,87.8630
2024-05-09T02:21:58.592Z,88.5130
2024-05-09T02:23:21.720Z,88.1651
2024-05-09T02:25:48.593Z,87.8630
2024-05-09T02:26:55.613Z,88.1743
2024-05-09T02:28:26.754Z,87.9789
2024-05-09T02:29:41.757Z,87.7913
2024-05-09T02:31:16.720Z,88.6320
2024-05-09T02:32:26.993Z,87.9561
2024-05-09T02:33:56.973Z,88.3803
2024-05-09T02:35:04.602Z,88.6931
2024-05-09T02:43:25.973Z,88.3162
2024-05-09T02:43:25.973Z,88.7053
2024-05-09T02:44:42.754Z,88.7282
2024-05-09T02:48:21.934Z,89.3874
2024-05-09T02:48:21.934Z,89.2683
2024-05-09T02:49:37.807Z,89.5476
2024-05-09T02:52:22.792Z,89.2546
2024-05-09T02:53:42.771Z,88.7694
2024-05-09T02:54:57.628Z,89.1859
2024-05-09T02:56:10.823Z,88.8487
2024-05-09T02:57:52.771Z,88.9799
2024-05-09T03:03:50.460Z,89.1142
2024-05-09T03:03:50.460Z,89.1646
2024-05-09T03:05:02.837Z,89.1829
2024-05-09T03:08:38.977Z,89.1920
2024-05-09T03:08:38.977Z,89.3431
2024-05-09T03:09:59.099Z,89.2317
2024-05-09T03:13:23.131Z,88.9998
2024-05-09T03:13:23.131Z,89.6727
2024-05-09T03:19:44.481Z,89.4347
2024-05-09T03:19:44.481Z,89.3019
2024-05-09T03:21:07.366Z,89.5994
2024-05-09T03:23:05.799Z,88.9174
2024-05-09T03:26:39.721Z,88.8075
2024-05-09T03:26:39.721Z,89.7780
2024-05-09T03:28:10.271Z,89.3004
2024-05-09T03:30:15.452Z,89.2546
2024-05-09T03:31:26.275Z,89.9687
2024-05-09T03:32:59.316Z,89.5109
2024-05-09T03:37:38.079Z,89.5033
2024-05-09T03:37:38.079Z,88.9616
2024-05-09T03:41:30.498Z,89.1920
2024-05-09T03:41:30.498Z,89.4697
2024-05-09T03:52:51.967Z,89.2592
2024-05-09T03:52:51.967Z,89.2790
2024-05-09T03:54:24.210Z,89.3751
2024-05-09T03:55:45.915Z,89.3614
2024-05-09T03:58:04.904Z,89.7215
2024-05-09T03:59:32.839Z,89.4102
2024-05-09T04:01:14.384Z,89.8283
2024-05-09T04:02:20.909Z,89.9657
2024-05-09T04:03:27.364Z,89.9184
2024-05-09T04:04:33.886Z,89.9870
2024-05-09T04:05:41.078Z,89.6819
2024-05-09T04:06:49.374Z,89.7765
2024-05-09T04:07:56.403Z,89.7169
2024-05-09T04:09:02.438Z,89.6727
2024-05-09T04:10:11.278Z,89.8268
2024-05-09T04:11:20.946Z,89.3019
2024-05-09T04:12:27.938Z,89.2790
2024-05-09T04:13:34.123Z,89.4896
2024-05-09T04:14:40.280Z,89.2409
2024-05-09T04:15:46.409Z,89.0547
2024-05-09T04:16:52.517Z,88.7846
2024-05-09T04:17:58.847Z,88.8518
2024-05-09T04:19:05.053Z,88.8792
2024-05-09T04:20:21.059Z,89.0166
2024-05-09T04:21:23.134Z,88.9677
2024-05-09T04:22:29.082Z,88.8121
2024-05-09T04:23:35.875Z,89.0684
2024-05-09T04:24:43.118Z,88.7236
2024-05-09T04:25:50.052Z,89.3568
2024-05-09T04:27:11.069Z,88.4413
2024-05-09T04:28:17.109Z,89.1691
2024-05-09T04:29:23.354Z,88.7282
2024-05-09T04:30:36.758Z,89.3202
2024-05-09T04:31:41.448Z,89.0776
2024-05-09T04:32:47.740Z,88.9448
2024-05-09T04:33:53.956Z,88.7510
2024-05-09T04:35:00.240Z,88.9677
2024-05-09T04:36:06.438Z,88.6885
2024-05-09T04:37:13.357Z,88.6686
2024-05-09T04:38:20.449Z,88.8243
2024-05-09T04:39:26.639Z,88.5313
2024-05-09T04:40:36.071Z,88.8792
2024-05-09T04:41:43.700Z,88.7694
2024-05-09T04:42:50.399Z,88.9540
2024-05-09T04:43:56.629Z,88.3314
2024-05-09T04:45:02.776Z,88.6046
2024-05-09T04:46:08.821Z,88.8853
2024-05-09T04:47:15.876Z,89.0166
2024-05-09T04:48:22.220Z,88.9250
2024-05-09T04:49:28.612Z,88.1926
2024-05-09T04:50:38.190Z,88.1788
2024-05-09T04:51:47.441Z,87.9408
2024-05-09T04:52:53.568Z,88.0232
2024-05-09T04:53:59.765Z,88.9815
2024-05-09T04:55:05.938Z,88.3589
2024-05-09T04:56:12.127Z,88.0690
2024-05-09T04:57:18.203Z,88.4504
2024-05-09T04:58:24.476Z,88.1422
2024-05-09T04:59:30.599Z,88.1010
2024-05-09T05:00:38.302Z,88.1621
2024-05-09T05:01:45.806Z,88.0003
2024-05-09T05:02:52.195Z,88.5649
2024-05-09T05:03:58.646Z,88.7098
2024-05-09T05:05:05.040Z,88.5359
2024-05-09T05:06:13.884Z,88.5740
2024-05-09T05:07:20.042Z,88.5542
2024-05-09T05:08:26.130Z,88.6473
2024-05-09T05:09:32.338Z,88.0751
2024-05-09T05:10:38.492Z,88.0735
2024-05-09T05:11:44.654Z,88.8121
2024-05-09T05:12:51.436Z,88.1300
2024-05-09T05:13:57.527Z,88.2445
2024-05-09T05:15:03.774Z,87.9774
2024-05-09T05:16:10.174Z,88.4215
2024-05-09T05:17:16.804Z,87.9957
2024-05-09T05:18:24.051Z,88.3528
2024-05-09T05:19:31.254Z,88.4504
2024-05-09T05:20:37.954Z,88.3162
2024-05-09T05:21:44.061Z,88.7022
2024-05-09T05:22:51.034Z,88.0461
2024-05-09T05:23:57.125Z,87.9835
2024-05-09T05:25:03.110Z,88.5267
2024-05-09T05:26:09.172Z,87.9561
2024-05-09T05:27:15.355Z,88.1605
2024-05-09T05:28:21.532Z,88.0644
2024-05-09T05:29:27.853Z,88.5695
2024-05-09T05:30:35.015Z,88.3680
2024-05-09T05:31:41.622Z,88.3497
2024-05-09T05:32:47.908Z,87.8584
2024-05-09T05:33:54.183Z,88.0781
2024-05-09T05:35:00.341Z,89.1859
2024-05-09T05:36:06.488Z,88.3894
2024-05-09T05:37:12.568Z,88.5283
2024-05-09T05:38:19.159Z,88.6915
2024-05-09T05:39:28.827Z,88.2673
2024-05-09T05:40:37.562Z,88.4672
2024-05-09T05:41:45.093Z,88.3269
2024-05-09T05:42:51.174Z,88.4169
2024-05-09T05:43:57.331Z,88.3207
2024-05-09T05:45:05.089Z,88.9479
2024-05-09T05:46:12.866Z,88.4398
2024-05-09T05:47:22.108Z,88.3619
2024-05-09T05:48:31.012Z,88.7648
2024-05-09T05:49:37.894Z,88.3909
2024-05-09T05:50:46.006Z,88.3314
2024-05-09T05:51:52.391Z,88.1514
2024-05-09T05:52:58.676Z,88.3085
2024-05-09T05:54:04.887Z,88.1651
2024-05-09T05:55:11.034Z,87.8508
2024-05-09T05:56:17.215Z,88.6976
2024-05-09T05:57:23.348Z,88.5634
2024-05-09T05:58:29.495Z,88.3040
2024-05-09T05:59:36.442Z,88.2170
2024-05-09T06:00:43.423Z,88.2017
2024-05-09T06:01:49.608Z,88.0568
2024-05-09T06:02:55.839Z,87.8630
2024-05-09T06:04:01.918Z,88.2948
2024-05-09T06:05:08.218Z,88.6000
2024-05-09T06:06:14.479Z,88.7648
2024-05-09T06:07:21.433Z,88.9067
2024-05-09T06:08:30.144Z,88.7190
2024-05-09T06:09:36.958Z,87.9789
2024-05-09T06:10:43.122Z,88.3986
2024-05-09T06:11:49.472Z,87.7852
2024-05-09T06:12:55.555Z,87.5303
2024-05-09T06:14:01.673Z,87.4571
2024-05-09T06:15:07.704Z,87.6722
2024-05-09T06:16:13.811Z,87.6127
2024-05-09T06:17:20.038Z,87.6997
2024-05-09T06:18:26.649Z,87.6341
2024-05-09T06:19:33.205Z,87.8050
2024-05-09T06:20:39.978Z,86.9215
2024-05-09T06:21:48.451Z,87.0573
2024-05-09T06:22:55.183Z,86.7796
2024-05-09T06:24:10.576Z,86.2165
2024-05-09T06:25:39.344Z,86.2379
2024-05-09T06:26:46.042Z,86.9795
2024-05-09T06:27:52.137Z,86.5217
2024-05-09T06:28:58.334Z,86.2791
2024-05-09T06:30:05.201Z,84.9928
2024-05-09T06:31:11.483Z,85.7984
2024-05-09T06:32:18.108Z,85.5100
2024-05-09T06:33:24.610Z,84.8798
2024-05-09T06:34:30.902Z,84.4663
2024-05-09T06:35:40.203Z,84.7639
2024-05-09T06:36:46.600Z,84.2756
2024-05-09T06:37:52.828Z,84.9241
2024-05-09T06:38:58.962Z,84.2664
2024-05-09T06:40:10.069Z,84.5869
2024-05-09T06:41:17.069Z,84.5716
2024-05-09T06:42:23.682Z,84.0009
2024-05-09T06:43:29.894Z,84.2603
2024-05-09T06:44:36.093Z,84.4297
2024-05-09T06:45:42.391Z,83.9780
2024-05-09T06:46:48.563Z,83.8758
2024-05-09T06:48:01.605Z,84.3671
2024-05-09T06:49:09.309Z,83.6530
2024-05-09T06:50:23.912Z,84.1245
2024-05-09T06:51:33.567Z,84.1093
2024-05-09T06:52:43.235Z,81.9440
2024-05-09T06:53:49.636Z,82.5757
2024-05-09T06:54:57.058Z,83.0518
2024-05-09T06:56:26.259Z,83.0762
2024-05-09T06:58:05.378Z,83.0442
2024-05-09T06:59:11.913Z,82.8412
2024-05-09T07:00:26.801Z,83.2319
2024-05-09T07:01:31.063Z,82.9572
2024-05-09T07:02:37.723Z,83.0945
2024-05-09T07:03:45.268Z,83.2166
2024-05-09T07:04:54.763Z,83.3539
2024-05-09T07:06:04.483Z,84.2023
2024-05-09T07:09:06.093Z,82.9480
2024-05-09T07:09:06.093Z,83.5386
2024-05-09T07:10:18.063Z,83.5340
2024-05-09T07:11:31.593Z,82.8336
2024-05-09T07:12:40.747Z,82.8641
2024-05-09T07:13:49.513Z,83.0793
2024-05-09T07:14:55.701Z,82.4247
2024-05-09T07:16:04.759Z,82.6368
2024-05-09T07:17:11.504Z,82.1180
2024-05-09T07:18:19.916Z,82.4109
2024-05-09T07:19:27.034Z,82.4475
2024-05-09T07:20:34.977Z,81.9364
2024-05-09T07:21:45.069Z,82.1790
2024-05-09T07:22:53.933Z,82.2568
2024-05-09T07:24:03.294Z,82.3392
2024-05-09T07:25:10.783Z,81.8586
2024-05-09T07:26:18.818Z,81.3687
2024-05-09T07:27:26.685Z,81.4740
2024-05-09T07:28:33.203Z,81.4923
2024-05-09T07:29:40.089Z,81.0834
2024-05-09T07:30:47.524Z,80.9979
2024-05-09T07:31:53.684Z,80.4425
2024-05-09T07:33:00.720Z,80.6989
2024-05-09T07:34:07.389Z,80.0580
2024-05-09T07:35:15.816Z,80.7996
2024-05-09T07:36:22.546Z,81.0712
2024-05-09T07:37:29.390Z,80.8423
2024-05-09T07:38:36.669Z,80.4944
2024-05-09T07:39:43.364Z,81.1261
2024-05-09T07:40:49.748Z,80.9644
2024-05-09T07:41:56.584Z,81.0605
2024-05-09T07:43:03.104Z,81.0254
2024-05-09T07:44:09.377Z,81.2390
2024-05-09T07:45:38.960Z,81.0666
2024-05-09T07:47:36.441Z,80.9003
2024-05-09T07:49:11.994Z,81.0208
2024-05-09T07:50:35.274Z,79.6200
2024-05-09T07:52:22.652Z,79.5132
2024-05-09T07:53:32.469Z,80.7584
2024-05-09T07:53:44.763Z,80.2136
2024-05-09T07:54:53.218Z,80.0992
2024-05-09T07:55:59.645Z,81.1490
2024-05-09T07:57:05.957Z,80.3113
2024-05-09T07:58:12.166Z,79.7711
2024-05-09T07:59:18.448Z,80.2792
2024-05-09T08:00:30.850Z,80.1694
2024-05-09T08:01:38.107Z,80.6226
2024-05-09T08:02:45.936Z,79.6292
2024-05-09T08:03:52.712Z,80.0168
2024-05-09T08:04:59.712Z,79.4537
2024-05-09T08:06:05.952Z,79.4690
2024-05-09T08:07:12.283Z,79.0295
2024-05-09T08:08:18.547Z,78.8281
2024-05-09T08:09:24.942Z,78.4878
2024-05-09T08:10:31.136Z,78.0545
2024-05-09T08:11:37.791Z,77.9385
2024-05-09T08:12:44.208Z,78.1170
2024-05-09T08:13:50.473Z,78.2467
2024-05-09T08:14:56.911Z,78.1079
2024-05-09T08:16:03.613Z,78.3047
2024-05-09T08:17:10.643Z,78.4833
2024-05-09T08:18:17.300Z,78.4802
2024-05-09T08:19:24.557Z,78.3337
2024-05-09T08:20:33.909Z,77.9568
2024-05-09T08:21:43.308Z,77.9706
2024-05-09T08:22:49.738Z,78.0591
2024-05-09T08:23:56.083Z,78.5794
2024-05-09T08:25:02.479Z,77.9110
2024-05-09T08:26:08.748Z,78.7579
2024-05-09T08:27:15.065Z,78.8830
2024-05-09T08:28:21.349Z,78.1964
2024-05-09T08:29:27.630Z,79.1669
2024-05-09T08:30:37.174Z,79.0417
2024-05-09T08:31:44.928Z,79.2721
2024-05-09T08:32:51.162Z,79.7803
2024-05-09T08:33:57.683Z,79.3271
2024-05-09T08:35:04.223Z,79.9268
2024-05-09T08:36:25.078Z,78.6480
2024-05-09T08:37:36.632Z,79.1562
2024-05-09T08:38:43.431Z,78.8724
2024-05-09T08:39:49.768Z,79.2752
2024-05-09T08:40:55.963Z,78.7549
2024-05-09T08:42:02.110Z,78.9288
2024-05-09T08:43:08.606Z,78.1445
2024-05-09T08:44:15.382Z,78.8190
2024-05-09T08:45:21.452Z,78.0438
2024-05-09T08:46:27.690Z,78.5031
2024-05-09T08:47:34.144Z,78.3612
2024-05-09T08:48:40.642Z,78.1048
2024-05-09T08:49:47.677Z,77.4075
2024-05-09T08:50:54.021Z,77.5311
2024-05-09T08:52:00.262Z,78.0041
2024-05-09T08:53:06.599Z,77.6013
2024-05-09T08:54:12.601Z,77.9019
2024-05-09T08:55:18.836Z,77.1145
2024-05-09T08:56:26.087Z,76.1273
2024-05-09T08:57:32.434Z,76.7498
2024-05-09T08:58:38.510Z,76.4050
2024-05-09T08:59:44.624Z,76.4614
2024-05-09T09:00:50.961Z,76.4462
2024-05-09T09:01:57.687Z,75.0011
2024-05-09T09:03:03.946Z,75.2071
2024-05-09T09:04:10.444Z,76.3958
2024-05-09T09:05:16.998Z,75.8022
2024-05-09T09:06:23.285Z,75.4910
2024-05-09T09:07:29.915Z,76.2875
2024-05-09T09:08:36.061Z,76.4462
2024-05-09T09:09:42.269Z,76.9650
2024-05-09T09:10:48.555Z,76.8811
2024-05-09T09:11:54.782Z,77.2702
2024-05-09T09:13:00.988Z,77.2625
2024-05-09T09:14:07.147Z,76.7346
2024-05-09T09:15:13.553Z,76.7300
2024-05-09T09:16:22.709Z,76.6491
2024-05-09T09:17:29.270Z,76.8536
2024-05-09T09:18:35.589Z,76.2875
2024-05-09T09:19:41.916Z,76.8627
2024-05-09T09:20:48.956Z,75.7931
2024-05-09T09:21:56.022Z,75.3811
2024-05-09T09:23:02.585Z,75.2483
2024-05-09T09:24:09.973Z,75.4635
2024-05-09T09:25:16.373Z,75.1095
2024-05-09T09:26:22.735Z,76.1028
2024-05-09T09:27:29.195Z,75.5963
2024-05-09T09:28:35.284Z,74.7234
2024-05-09T09:29:41.518Z,74.3816
2024-05-09T09:30:47.876Z,73.8033
2024-05-09T09:31:56.702Z,74.2992
2024-05-09T09:33:03.353Z,74.1192
2024-05-09T09:34:09.894Z,75.6222
2024-05-09T09:35:16.147Z,73.9834
2024-05-09T09:36:22.558Z,73.7758
2024-05-09T09:37:29.121Z,75.2804
2024-05-09T09:38:35.831Z,74.3114
2024-05-09T09:39:42.098Z,73.9513
2024-05-09T09:40:50.097Z,73.8720
2024-05-09T09:41:56.565Z,75.0790
2024-05-09T09:43:02.817Z,74.7234
2024-05-09T09:44:09.516Z,74.8287
2024-05-09T09:45:15.643Z,74.5373
2024-05-09T09:46:21.813Z,75.0332
2024-05-09T09:47:28.048Z,73.5851
2024-05-09T09:48:34.685Z,72.8298
2024-05-09T09:49:41.464Z,73.4874
2024-05-09T09:50:48.030Z,73.7530
2024-05-09T09:51:54.478Z,73.2906
2024-05-09T09:53:00.828Z,73.6446
2024-05-09T09:54:07.179Z,73.0617
2024-05-09T09:55:14.193Z,73.1594
2024-05-09T09:56:20.351Z,72.4727
2024-05-09T09:57:26.760Z,71.9036
2024-05-09T09:58:32.846Z,71.3512
2024-05-09T09:59:38.887Z,71.5755
2024-05-09T10:00:46.307Z,72.9488
2024-05-09T10:01:52.888Z,72.5139
2024-05-09T10:02:59.562Z,71.4870
2024-05-09T10:04:07.416Z,71.6243
2024-05-09T10:05:13.952Z,71.0033
2024-05-09T10:06:20.420Z,70.1930
2024-05-09T10:07:26.663Z,69.1432
2024-05-09T10:08:33.173Z,68.8960
2024-05-09T10:09:39.415Z,69.8726
2024-05-09T10:10:46.325Z,69.2073
2024-05-09T10:11:59.701Z,68.0537
2024-05-09T10:13:05.911Z,68.4657
2024-05-09T10:14:12.577Z,68.4840
2024-05-09T10:15:18.961Z,67.6921
2024-05-09T10:16:25.722Z,68.4382
2024-05-09T10:17:32.772Z,68.1468
2024-05-09T10:18:39.553Z,68.7968
2024-05-09T10:19:46.259Z,68.5847
2024-05-09T10:20:52.626Z,68.3101
2024-05-09T10:21:58.924Z,69.0471
2024-05-09T10:23:20.215Z,67.1931
2024-05-09T10:24:26.546Z,67.4830
2024-05-09T10:25:32.823Z,67.2114
2024-05-09T10:26:39.099Z,66.4485
2024-05-09T10:27:45.435Z,65.8671
2024-05-09T10:28:51.601Z,64.9454
2024-05-09T10:29:57.829Z,65.4765
2024-05-09T10:31:04.077Z,65.3941
2024-05-09T10:32:10.474Z,66.9230
2024-05-09T10:33:16.665Z,65.1286
2024-05-09T10:34:23.364Z,64.9958
2024-05-09T10:35:29.450Z,64.2680
2024-05-09T10:36:35.770Z,65.3727
2024-05-09T10:37:41.939Z,65.1530
2024-05-09T10:38:48.200Z,66.7445
2024-05-09T10:39:54.474Z,66.5751
2024-05-09T10:41:00.637Z,67.2999
2024-05-09T10:42:07.140Z,66.0349
2024-05-09T10:43:13.348Z,67.9805
2024-05-09T10:44:19.569Z,68.0690
2024-05-09T10:45:25.636Z,68.0415
2024-05-09T10:46:32.057Z,68.3162
2024-05-09T10:47:39.264Z,68.5527
2024-05-09T10:48:45.640Z,68.0140
2024-05-09T10:49:52.674Z,68.0690
2024-05-09T10:50:59.167Z,66.8086
2024-05-09T10:52:05.255Z,68.9662
2024-05-09T10:53:11.451Z,69.6010
2024-05-09T10:54:20.531Z,68.7633
2024-05-09T10:55:26.870Z,68.6137
2024-05-09T10:56:33.141Z,69.2363
2024-05-09T10:57:39.574Z,69.6330
2024-05-09T10:58:45.676Z,69.8802
2024-05-09T10:59:54.641Z,68.2933
2024-05-09T11:01:05.462Z,68.0919
2024-05-09T11:02:14.014Z,67.4784
2024-05-09T11:03:20.851Z,67.8157
2024-05-09T11:04:27.058Z,67.2541
2024-05-09T11:05:33.477Z,66.3523
2024-05-09T11:06:40.408Z,65.2430
2024-05-09T11:07:47.189Z,64.0726
2024-05-09T11:08:53.331Z,64.3915
2024-05-09T11:10:00.104Z,64.1962
2024-05-09T11:11:08.233Z,64.5975
2024-05-09T11:12:15.786Z,63.5096
2024-05-09T11:13:22.420Z,64.0803
2024-05-09T11:14:29.779Z,64.1489
2024-05-09T11:15:36.395Z,63.5813
2024-05-09T11:17:11.317Z,64.2954
2024-05-09T11:18:15.947Z,65.3819
2024-05-09T11:19:20.992Z,65.4597
2024-05-09T11:20:29.739Z,64.7822
2024-05-09T11:21:34.685Z,64.7318
2024-05-09T11:22:38.815Z,65.6687
2024-05-09T11:23:43.321Z,61.5869
2024-05-09T11:24:48.299Z,57.9202
2024-05-09T11:25:52.470Z,59.2065
2024-05-09T11:26:56.538Z,60.5142
2024-05-09T11:28:00.687Z,61.0422
2024-05-09T11:29:05.816Z,60.2487
2024-05-09T11:30:14.457Z,60.1984
2024-05-09T11:31:20.043Z,60.6790
2024-05-09T11:32:24.260Z,59.9374
2024-05-09T11:33:28.912Z,61.1597
2024-05-09T11:34:35.238Z,60.4044
2024-05-09T11:35:39.368Z,61.8601
2024-05-09T11:36:43.579Z,63.5493
2024-05-09T11:37:47.769Z,64.3015
2024-05-09T11:38:52.364Z,64.9195
2024-05-09T11:39:56.628Z,64.5792
2024-05-09T11:41:00.925Z,64.9699
2024-05-09T11:42:05.829Z,65.1606
2024-05-09T11:43:10.127Z,64.3244
2024-05-09T11:44:14.425Z,64.2512
2024-05-09T11:45:18.511Z,64.7990
2024-05-09T11:46:23.510Z,64.6311
2024-05-09T11:47:27.511Z,63.9475
2024-05-09T11:48:31.801Z,63.5050
2024-05-09T11:49:36.190Z,64.2008
2024-05-09T11:50:40.203Z,64.9271
2024-05-09T11:51:44.396Z,64.1917
2024-05-09T11:52:48.466Z,63.0472
2024-05-09T11:53:52.711Z,63.7873
2024-05-09T11:54:56.838Z,65.0187
2024-05-09T11:56:01.065Z,65.4459
2024-05-09T11:57:05.324Z,65.8244
2024-05-09T11:58:09.549Z,66.1860
2024-05-09T11:59:13.719Z,65.6916
2024-05-09T12:00:25.214Z,64.5624
2024-05-09T12:01:28.346Z,65.0462
2024-05-09T12:02:33.083Z,65.7008
2024-05-09T12:03:37.546Z,64.9928
2024-05-09T12:04:41.921Z,64.4663
2024-05-09T12:05:46.447Z,63.9307
2024-05-09T12:06:50.784Z,64.6632
2024-05-09T12:07:56.056Z,65.3223
2024-05-09T12:09:00.240Z,63.9445
2024-05-09T12:10:06.059Z,64.4114
2024-05-09T12:11:14.905Z,62.6291
2024-05-09T12:12:19.060Z,62.2049
2024-05-09T12:13:23.341Z,61.8387
2024-05-09T12:14:27.617Z,63.4409
2024-05-09T12:15:31.924Z,62.8717
2024-05-09T12:16:36.322Z,63.0335
2024-05-09T12:17:40.600Z,63.0091
2024-05-09T12:18:45.620Z,62.1134
2024-05-09T12:19:49.908Z,63.5737
2024-05-09T12:20:54.129Z,63.8071
2024-05-09T12:21:58.454Z,63.0747
2024-05-09T12:23:02.616Z,62.4659
2024-05-09T12:24:06.855Z,62.9923
2024-05-09T12:25:11.889Z,62.8138
2024-05-09T12:26:16.130Z,62.9191
2024-05-09T12:27:21.316Z,62.9084
2024-05-09T12:28:25.642Z,62.5055
2024-05-09T12:29:30.022Z,62.6062
2024-05-09T12:30:38.062Z,61.8250
2024-05-09T12:31:44.504Z,59.4858
2024-05-09T12:32:48.952Z,59.1974
2024-05-09T12:33:53.323Z,59.3835
2024-05-09T12:34:57.764Z,59.9283
2024-05-09T12:36:02.015Z,59.1867
2024-05-09T12:37:06.218Z,58.8724
2024-05-09T12:38:11.265Z,58.1399
2024-05-09T12:39:15.548Z,59.3393
2024-05-09T12:40:31.831Z,57.9736
2024-05-09T12:41:59.919Z,56.4034
2024-05-09T12:43:09.997Z,56.8429
2024-05-09T12:44:18.058Z,57.1923
2024-05-09T12:45:23.274Z,57.2519
2024-05-09T12:46:36.802Z,57.7462
2024-05-09T12:47:50.557Z,56.1013
2024-05-09T12:49:07.336Z,57.1420
2024-05-09T12:50:29.876Z,56.9818
2024-05-09T12:51:32.345Z,59.0967
2024-05-09T12:52:39.299Z,58.2498
2024-05-09T12:54:04.169Z,59.7238
2024-05-09T12:55:16.614Z,58.7518
2024-05-09T12:56:30.315Z,59.8459
2024-05-09T12:57:44.816Z,56.9253
2024-05-09T12:58:59.080Z,57.4609
2024-05-09T13:00:14.176Z,58.3535
2024-05-09T13:01:24.178Z,59.1104
2024-05-09T13:02:34.052Z,58.4771
2024-05-09T13:03:45.989Z,58.9227
2024-05-09T13:05:07.809Z,58.6648
2024-05-09T13:06:12.133Z,59.9527
2024-05-09T13:07:18.941Z,59.2020
2024-05-09T13:08:23.271Z,59.4217
2024-05-09T13:09:28.914Z,58.3856
2024-05-09T13:10:33.768Z,59.6460
2024-05-09T13:11:38.514Z,58.3124
2024-05-09T13:12:44.667Z,58.2300
2024-05-09T13:13:49.286Z,58.3490
2024-05-09T13:14:55.024Z,57.3434
2024-05-09T13:16:00.430Z,59.0509
2024-05-09T13:17:04.519Z,57.4380
2024-05-09T13:18:10.491Z,55.4345
2024-05-09T13:19:15.500Z,53.9147
2024-05-09T13:20:29.118Z,49.8772
2024-05-09T13:21:30.648Z,53.6446
2024-05-09T13:22:34.830Z,54.0246
2024-05-09T13:23:39.450Z,53.8140
2024-05-09T13:24:43.867Z,53.9376
2024-05-09T13:25:48.424Z,55.1461
2024-05-09T13:26:52.865Z,56.7971
2024-05-09T13:27:57.794Z,55.6069
2024-05-09T13:29:02.535Z,57.0260
2024-05-09T13:30:11.873Z,54.3084
2024-05-09T13:31:18.423Z,56.3638
2024-05-09T13:32:23.292Z,55.6634
2024-05-09T13:33:28.255Z,55.5352
2024-05-09T13:34:32.846Z,56.8978
2024-05-09T13:35:38.277Z,56.5515
2024-05-09T13:36:42.883Z,56.9589
2024-05-09T13:37:48.667Z,56.8582
2024-05-09T13:38:53.093Z,56.0204
2024-05-09T13:39:58.152Z,56.1212
2024-05-09T13:41:02.786Z,57.7264
2024-05-09T13:42:07.501Z,56.1944
2024-05-09T13:43:12.366Z,57.2000
2024-05-09T13:44:17.237Z,58.1109
2024-05-09T13:45:21.383Z,55.1171
2024-05-09T13:46:25.886Z,55.4147
2024-05-09T13:47:32.163Z,55.1049
2024-05-09T13:48:36.774Z,54.7295
2024-05-09T13:49:42.181Z,55.4849
2024-05-09T13:50:47.458Z,56.1807
2024-05-09T13:51:52.009Z,56.4553
2024-05-09T13:52:56.479Z,56.2432
2024-05-09T13:54:00.737Z,57.2106
2024-05-09T13:55:05.101Z,56.2432
2024-05-09T13:56:10.126Z,57.2778
2024-05-09T13:57:17.400Z,57.5952
2024-05-09T13:58:23.050Z,57.5769
2024-05-09T13:59:31.379Z,57.8912
2024-05-09T14:00:44.358Z,58.0194
2024-05-09T14:01:47.203Z,57.6318
2024-05-09T14:02:51.948Z,55.9731
2024-05-09T14:03:58.045Z,56.1807
2024-05-09T14:05:02.621Z,57.1878
2024-05-09T14:06:09.432Z,55.2193
2024-05-09T14:07:17.978Z,56.0754
2024-05-09T14:08:23.702Z,56.6186
2024-05-09T14:09:28.475Z,55.5215
2024-05-09T14:10:33.797Z,54.9065
2024-05-09T14:11:38.689Z,55.5932
2024-05-09T14:12:42.974Z,55.7488
2024-05-09T14:13:48.102Z,55.3933
2024-05-09T14:14:52.339Z,57.2000
2024-05-09T14:15:56.804Z,56.5927
2024-05-09T14:17:01.294Z,57.9507
2024-05-09T14:18:08.107Z,57.0123
2024-05-09T14:19:14.320Z,56.7102
2024-05-09T14:20:28.301Z,57.2885
2024-05-09T14:21:29.741Z,57.0306
2024-05-09T14:22:34.450Z,56.8124
2024-05-09T14:23:39.368Z,55.5673
2024-05-09T14:24:45.664Z,55.2407
2024-05-09T14:25:51.973Z,54.7799
2024-05-09T14:26:57.167Z,55.0805
2024-05-09T14:28:01.485Z,55.6985
2024-05-09T14:29:06.392Z,54.7417
2024-05-09T14:30:18.138Z,47.1061
2024-05-09T14:31:21.067Z,53.2326
2024-05-09T14:32:25.247Z,48.7190
2024-05-09T14:33:31.097Z,45.6107
2024-05-09T14:36:47.627Z,47.3304
2024-05-09T14:36:47.627Z,49.3492
2024-05-09T14:38:06.869Z,52.8786
2024-05-09T14:39:37.228Z,54.7295
2024-05-09T14:41:19.979Z,55.0408
2024-05-09T14:42:25.645Z,55.4009
2024-05-09T14:43:35.121Z,55.9548